createdAt,value
2019-03-19T00:01:56.379Z,3.40
2019-03-19T00:04:24.759Z,3.93
2019-03-19T00:06:53.135Z,4.30
2019-03-19T00:09:21.482Z,4.43
2019-03-19T00:11:50.726Z,3.83
2019-03-19T00:14:19.096Z,4.00
2019-03-19T00:16:47.456Z,4.87
2019-03-19T00:19:15.876Z,4.40
2019-03-19T00:21:44.209Z,5.12
2019-03-19T00:24:12.582Z,5.50
2019-03-19T00:26:40.928Z,6.40
2019-03-19T00:29:09.261Z,5.20
2019-03-19T00:31:37.600Z,4.53
2019-03-19T00:34:05.961Z,6.12
2019-03-19T00:36:34.348Z,4.80
2019-03-19T00:39:02.695Z,5.80
2019-03-19T00:41:31.053Z,4.53
2019-03-19T00:43:59.403Z,5.75
2019-03-19T00:46:27.755Z,4.57
2019-03-19T00:48:56.173Z,4.70
2019-03-19T00:51:24.528Z,5.70
2019-03-19T00:53:52.869Z,6.82
2019-03-19T00:56:21.207Z,5.80
2019-03-19T00:58:49.568Z,5.60
2019-03-19T01:01:17.988Z,6.07
2019-03-19T01:03:46.393Z,6.20
2019-03-19T01:06:14.796Z,4.90
2019-03-19T01:08:43.148Z,6.30
2019-03-19T01:11:11.485Z,4.30
2019-03-19T01:13:39.830Z,5.50
2019-03-19T01:16:08.173Z,5.30
2019-03-19T01:22:48.414Z,6.20
2019-03-19T01:25:17.012Z,5.20
2019-03-19T01:27:45.340Z,5.33
2019-03-19T01:30:15.601Z,4.43
2019-03-19T01:32:43.948Z,6.10
2019-03-19T01:35:12.387Z,6.07
2019-03-19T01:37:40.768Z,5.27
2019-03-19T01:40:11.794Z,7.00
2019-03-19T01:42:40.135Z,5.23
2019-03-19T01:45:09.299Z,4.83
2019-03-19T01:47:37.728Z,6.25
2019-03-19T01:50:06.777Z,5.30
2019-03-19T01:52:35.169Z,6.87
2019-03-19T01:55:03.534Z,5.30
2019-03-19T01:57:32.219Z,5.63
2019-03-19T02:00:00.635Z,5.00
2019-03-19T02:02:28.940Z,5.85
2019-03-19T02:04:57.287Z,5.00
2019-03-19T02:07:26.585Z,5.30
2019-03-19T02:09:54.948Z,6.03
2019-03-19T02:12:23.299Z,5.70
2019-03-19T02:14:51.648Z,6.18
2019-03-19T02:17:19.992Z,5.90
2019-03-19T02:19:48.332Z,4.93
2019-03-19T02:22:16.681Z,4.90
2019-03-19T02:24:45.121Z,5.30
2019-03-19T02:27:13.464Z,5.00
2019-03-19T02:29:41.842Z,5.90
2019-03-19T02:32:10.234Z,6.30
2019-03-19T02:37:13.882Z,7.10
2019-03-19T02:39:42.272Z,5.50
2019-03-19T02:42:10.761Z,6.33
2019-03-19T02:44:39.117Z,6.72
2019-03-19T02:47:07.465Z,6.20
2019-03-19T02:49:36.877Z,6.90
2019-03-19T02:52:05.856Z,6.10
2019-03-19T02:54:34.302Z,5.30
2019-03-19T02:57:02.669Z,6.97
2019-03-19T02:59:31.150Z,7.90
2019-03-19T03:01:59.487Z,9.32
2019-03-19T03:04:27.915Z,6.50
2019-03-19T03:06:56.244Z,6.55
2019-03-19T03:09:24.608Z,5.63
2019-03-19T03:11:52.942Z,6.70
2019-03-19T03:14:21.281Z,6.20
2019-03-19T03:16:49.633Z,6.50
2019-03-19T03:19:18.000Z,5.97
2019-03-19T03:21:46.327Z,5.10
2019-03-19T03:24:14.661Z,5.90
2019-03-19T03:26:48.319Z,6.63
2019-03-19T03:29:11.430Z,4.97
2019-03-19T03:31:39.818Z,6.43
2019-03-19T03:34:08.323Z,5.40
2019-03-19T03:36:36.685Z,6.43
2019-03-19T03:39:05.065Z,5.47
2019-03-19T03:41:33.397Z,5.40
2019-03-19T03:44:01.866Z,5.23
2019-03-19T03:46:30.190Z,6.25
2019-03-19T03:48:58.544Z,6.50
2019-03-19T03:51:26.907Z,5.93
2019-03-19T03:53:55.348Z,5.67
2019-03-19T03:56:23.672Z,5.37
2019-03-19T03:59:00.591Z,6.62
2019-03-19T04:01:20.385Z,5.30
2019-03-19T04:03:48.775Z,7.20
2019-03-19T04:08:54.473Z,8.00
2019-03-19T04:16:31.276Z,7.70
2019-03-19T04:18:59.631Z,6.47
2019-03-19T04:21:27.965Z,5.97
2019-03-19T04:23:56.363Z,8.50
2019-03-19T04:26:24.809Z,6.37
2019-03-19T04:28:53.173Z,6.73
2019-03-19T04:31:21.510Z,6.47
2019-03-19T04:33:49.904Z,7.80
2019-03-19T04:36:18.266Z,6.80
2019-03-19T04:38:46.611Z,7.33
2019-03-19T04:46:23.446Z,10.48
2019-03-19T04:48:51.831Z,8.37
2019-03-19T04:51:20.244Z,8.03
2019-03-19T04:53:48.616Z,7.80
2019-03-19T04:56:16.984Z,7.90
2019-03-19T04:58:46.218Z,7.80
2019-03-19T05:01:14.564Z,10.40
2019-03-19T05:03:42.893Z,8.37
2019-03-19T05:08:45.536Z,9.65
2019-03-19T05:11:13.889Z,8.80
2019-03-19T05:13:42.216Z,9.70
2019-03-19T05:16:10.605Z,8.47
2019-03-19T05:18:39.046Z,8.70
2019-03-19T05:21:07.414Z,9.20
2019-03-19T05:23:35.766Z,11.60
2019-03-19T05:26:04.113Z,9.57
2019-03-19T05:31:06.751Z,10.50
2019-03-19T05:33:35.081Z,10.03
2019-03-19T05:36:03.420Z,8.63
2019-03-19T05:38:32.727Z,11.35
2019-03-19T05:41:01.101Z,9.90
2019-03-19T05:43:29.490Z,9.47
2019-03-19T05:45:57.867Z,10.27
2019-03-19T05:48:26.289Z,9.50
2019-03-19T05:53:31.860Z,12.80
2019-03-19T05:56:00.392Z,12.90
2019-03-19T05:58:28.753Z,10.47
2019-03-19T06:00:57.257Z,13.80
2019-03-19T06:03:25.613Z,13.20
2019-03-19T06:05:54.054Z,9.80
2019-03-19T06:08:22.388Z,13.90
2019-03-19T06:10:50.745Z,11.43
2019-03-19T06:13:19.293Z,14.18
2019-03-19T06:15:47.883Z,11.43
2019-03-19T06:18:16.216Z,9.80
2019-03-19T06:20:44.637Z,11.47
2019-03-19T06:23:13.411Z,13.62
2019-03-19T06:28:16.043Z,13.27
2019-03-19T06:30:44.367Z,10.47
2019-03-19T06:33:12.702Z,10.13
2019-03-19T06:35:42.025Z,9.33
2019-03-19T06:38:10.387Z,9.77
2019-03-19T06:40:38.761Z,9.73
2019-03-19T06:43:07.150Z,8.73
2019-03-19T06:45:35.532Z,8.27
2019-03-19T06:48:03.879Z,9.40
2019-03-19T06:50:32.219Z,11.45
2019-03-19T06:53:00.551Z,9.73
2019-03-19T06:55:28.913Z,9.87
2019-03-19T06:57:57.259Z,8.50
2019-03-19T07:00:25.596Z,9.00
2019-03-19T07:02:53.943Z,8.80
2019-03-19T07:07:56.462Z,10.63
2019-03-19T07:10:25.735Z,8.57
2019-03-19T07:12:54.072Z,9.90
2019-03-19T07:17:56.688Z,11.65
2019-03-19T07:20:25.917Z,9.73
2019-03-19T07:22:54.331Z,8.57
2019-03-19T07:25:22.677Z,9.37
2019-03-19T07:27:51.011Z,9.00
2019-03-19T07:30:23.649Z,10.30
2019-03-19T07:32:52.010Z,10.80
2019-03-19T07:35:20.339Z,9.53
2019-03-19T07:40:25.981Z,11.02
2019-03-19T07:42:54.301Z,10.40
2019-03-19T07:45:22.649Z,10.93
2019-03-19T07:47:51.033Z,9.87
2019-03-19T07:50:20.877Z,9.23
2019-03-19T07:52:49.251Z,8.10
2019-03-19T07:55:17.605Z,8.50
2019-03-19T07:57:46.081Z,9.70
2019-03-19T08:00:14.407Z,10.00
2019-03-19T08:02:43.700Z,9.03
2019-03-19T08:05:12.047Z,9.30
2019-03-19T08:07:40.389Z,8.57
2019-03-19T08:12:43.914Z,9.48
2019-03-19T08:15:13.170Z,9.07
2019-03-19T08:17:42.946Z,7.73
2019-03-19T08:20:09.859Z,8.90
2019-03-19T08:22:38.227Z,9.85
2019-03-19T08:25:08.786Z,8.23
2019-03-19T08:27:35.830Z,8.30
2019-03-19T08:30:04.187Z,9.45
2019-03-19T08:32:32.559Z,8.67
2019-03-19T08:35:00.943Z,9.53
2019-03-19T08:37:29.323Z,8.63
2019-03-19T08:39:57.668Z,9.67
2019-03-19T08:45:03.332Z,9.52
2019-03-19T08:47:31.783Z,9.20
2019-03-19T08:50:00.134Z,8.90
2019-03-19T08:52:28.480Z,8.73
2019-03-19T08:54:56.813Z,8.50
2019-03-19T08:57:25.148Z,9.23
2019-03-19T08:59:53.511Z,9.53
2019-03-19T09:02:23.000Z,10.80
2019-03-19T09:04:51.420Z,9.27
2019-03-19T09:09:40.452Z,9.57
2019-03-19T09:12:08.798Z,8.90
2019-03-19T09:14:37.147Z,8.27
2019-03-19T09:17:05.494Z,7.47
2019-03-19T09:19:33.833Z,7.30
2019-03-19T09:22:02.188Z,7.00
2019-03-19T09:24:30.579Z,6.55
2019-03-19T09:26:58.930Z,6.30
2019-03-19T09:29:27.268Z,7.35
2019-03-19T09:31:56.532Z,7.10
2019-03-19T09:34:24.885Z,7.77
2019-03-19T09:36:57.620Z,7.50
2019-03-19T09:39:22.483Z,8.17
2019-03-19T09:41:50.827Z,7.67
2019-03-19T09:44:19.181Z,7.33
2019-03-19T09:46:47.547Z,7.30
2019-03-19T09:49:15.904Z,7.90
2019-03-19T09:51:44.244Z,7.53
2019-03-19T09:54:12.610Z,6.60
2019-03-19T09:56:40.952Z,7.13
2019-03-19T09:59:09.310Z,5.90
2019-03-19T10:01:37.647Z,4.70
2019-03-19T10:04:05.999Z,5.37
2019-03-19T10:09:08.651Z,6.87
2019-03-19T10:11:36.984Z,8.50
2019-03-19T10:14:05.329Z,7.37
2019-03-19T10:16:33.680Z,7.63
2019-03-19T10:19:02.056Z,7.00
2019-03-19T10:21:30.415Z,6.80
2019-03-19T10:23:58.739Z,7.30
2019-03-19T10:26:27.089Z,8.15
2019-03-19T10:28:55.422Z,8.17
2019-03-19T10:31:24.076Z,6.70
2019-03-19T10:33:52.434Z,7.00
2019-03-19T10:36:20.782Z,6.17
2019-03-19T10:38:49.229Z,7.15
2019-03-19T10:41:17.653Z,6.93
2019-03-19T10:43:46.011Z,4.83
2019-03-19T10:46:14.960Z,5.83
2019-03-19T10:48:42.731Z,5.77
2019-03-19T10:51:11.094Z,4.30
2019-03-19T10:56:16.800Z,4.20
2019-03-19T11:01:20.565Z,3.47
2019-03-19T11:03:49.858Z,4.40
2019-03-19T11:06:18.217Z,4.80
2019-03-19T11:08:46.590Z,3.90
2019-03-19T11:11:14.953Z,3.70
2019-03-19T11:13:43.285Z,3.30
2019-03-19T11:16:11.647Z,3.23
2019-03-19T11:18:40.066Z,3.60
2019-03-19T11:21:08.380Z,3.73
2019-03-19T11:23:36.728Z,3.90
2019-03-19T11:26:05.071Z,3.37
2019-03-19T11:28:33.560Z,3.00
2019-03-19T11:31:01.922Z,3.67
2019-03-19T11:33:30.260Z,4.33
2019-03-19T11:35:58.613Z,3.70
2019-03-19T11:38:26.941Z,3.73
2019-03-19T11:40:55.292Z,3.10
2019-03-19T11:43:23.652Z,3.97
2019-03-19T11:45:52.015Z,4.07
2019-03-19T11:48:20.368Z,3.40
2019-03-19T11:50:48.759Z,3.10
2019-03-19T11:53:17.118Z,3.50
2019-03-19T11:55:45.538Z,4.77
2019-03-19T12:00:48.451Z,4.50
2019-03-19T12:03:16.854Z,3.37
2019-03-19T12:05:45.224Z,2.80
2019-03-19T12:08:13.585Z,3.67
2019-03-19T12:10:41.948Z,3.37
2019-03-19T12:13:10.291Z,4.10
2019-03-19T12:15:38.879Z,3.97
2019-03-19T12:18:07.240Z,3.80
2019-03-19T12:20:35.598Z,3.53
2019-03-19T12:23:04.144Z,3.60
2019-03-19T12:28:06.800Z,4.50
2019-03-19T12:30:35.288Z,4.47
2019-03-19T12:35:37.981Z,3.83
2019-03-19T12:38:06.326Z,3.90
2019-03-19T12:40:37.250Z,3.60
2019-03-19T12:43:03.090Z,3.60
2019-03-19T12:45:31.442Z,3.50
2019-03-19T12:50:34.124Z,2.53
2019-03-19T12:53:02.523Z,2.60
2019-03-19T12:58:10.177Z,2.43
2019-03-19T13:00:38.536Z,2.70
2019-03-19T13:03:06.897Z,2.67
2019-03-19T13:05:35.241Z,2.30
2019-03-19T13:08:03.630Z,2.07
2019-03-19T13:10:31.969Z,2.67
2019-03-19T13:13:00.355Z,2.80
2019-03-19T13:15:28.694Z,2.62
2019-03-19T13:17:57.057Z,2.25
2019-03-19T13:22:59.652Z,2.50
2019-03-19T13:25:28.120Z,2.63
2019-03-19T13:27:56.449Z,2.47
2019-03-19T13:30:28.578Z,3.00
2019-03-19T13:32:56.909Z,3.30
2019-03-19T13:35:25.262Z,3.27
2019-03-19T13:37:53.701Z,3.30
2019-03-19T13:40:22.079Z,3.10
2019-03-19T13:42:50.460Z,3.87
2019-03-19T13:45:18.852Z,3.97
2019-03-19T13:47:47.239Z,3.80
2019-03-19T13:50:16.369Z,4.20
2019-03-19T13:52:44.755Z,4.43
2019-03-19T13:55:15.071Z,4.68
2019-03-19T13:57:43.490Z,4.93
2019-03-19T14:00:13.778Z,4.60
2019-03-19T14:02:42.168Z,5.10
2019-03-19T14:05:11.435Z,4.93
2019-03-19T14:07:39.780Z,5.00
2019-03-19T14:10:12.788Z,5.00
2019-03-19T14:12:41.139Z,5.70
2019-03-19T14:17:46.744Z,5.50
2019-03-19T14:20:17.673Z,4.80
2019-03-19T14:22:46.024Z,4.30
2019-03-19T14:27:48.688Z,4.30
2019-03-19T14:30:17.025Z,4.20
2019-03-19T14:32:45.384Z,3.90
2019-03-19T14:35:13.740Z,3.80
2019-03-19T14:37:42.252Z,3.90
2019-03-19T14:42:48.828Z,3.30
2019-03-19T14:45:17.214Z,3.93
2019-03-19T14:47:45.568Z,2.97
2019-03-19T14:50:14.677Z,3.27
2019-03-19T14:52:43.995Z,3.40
2019-03-19T14:56:22.828Z,3.45
2019-03-19T14:58:51.172Z,3.27
2019-03-19T15:01:19.919Z,3.97
2019-03-19T15:03:47.890Z,3.42
2019-03-19T15:06:16.220Z,2.77
2019-03-19T15:08:44.571Z,3.60
2019-03-19T15:11:12.960Z,3.12
2019-03-19T15:13:41.361Z,3.10
2019-03-19T15:16:15.422Z,3.90
2019-03-19T15:18:44.737Z,4.10
2019-03-19T15:21:13.080Z,5.00
2019-03-19T15:23:41.451Z,4.40
2019-03-19T15:26:09.794Z,4.93
2019-03-19T15:28:38.156Z,4.80
2019-03-19T15:31:06.501Z,4.97
2019-03-19T15:33:34.857Z,4.93
2019-03-19T15:36:03.205Z,4.47
2019-03-19T15:38:31.551Z,5.33
2019-03-19T15:40:59.889Z,4.47
2019-03-19T15:43:28.245Z,4.43
2019-03-19T15:48:30.869Z,4.93
2019-03-19T15:51:00.204Z,4.23
2019-03-19T15:56:05.919Z,4.73
2019-03-19T15:58:34.356Z,5.20
2019-03-19T16:01:02.701Z,5.35
2019-03-19T16:03:31.044Z,5.63
2019-03-19T16:05:59.501Z,4.87
2019-03-19T16:08:27.860Z,5.57
2019-03-19T16:10:56.247Z,4.60
2019-03-19T16:13:24.603Z,5.00
2019-03-19T16:15:52.966Z,4.67
2019-03-19T16:18:21.292Z,5.00
2019-03-19T16:20:49.657Z,4.90
2019-03-19T16:23:18.040Z,5.03
2019-03-19T16:25:46.414Z,4.60
2019-03-19T16:28:14.825Z,5.20
2019-03-19T16:30:43.191Z,4.80
2019-03-19T16:33:11.544Z,5.20
2019-03-19T16:35:39.890Z,4.77
2019-03-19T16:38:08.241Z,5.00
2019-03-19T16:40:36.636Z,4.80
2019-03-19T16:43:04.996Z,4.67
2019-03-19T16:45:33.358Z,4.73
2019-03-19T16:48:01.694Z,5.40
2019-03-19T16:50:30.051Z,5.47
2019-03-19T16:52:58.450Z,5.27
2019-03-19T16:55:26.960Z,5.40
2019-03-19T16:57:55.512Z,6.00
2019-03-19T17:00:25.636Z,5.90
2019-03-19T17:02:54.035Z,5.47
2019-03-19T17:05:22.377Z,4.90
2019-03-19T17:07:50.711Z,4.83
2019-03-19T17:10:29.073Z,4.60
2019-03-19T17:12:57.412Z,4.17
2019-03-19T17:15:26.763Z,4.22
2019-03-19T17:17:55.182Z,3.90
2019-03-19T17:20:23.522Z,3.77
2019-03-19T17:22:51.893Z,3.03
2019-03-19T17:25:21.736Z,3.47
2019-03-19T17:27:50.107Z,4.00
2019-03-19T17:30:33.771Z,3.90
2019-03-19T17:33:04.104Z,3.87
2019-03-19T17:35:32.449Z,4.67
2019-03-19T17:38:00.791Z,5.00
2019-03-19T17:40:29.162Z,4.60
2019-03-19T17:42:57.494Z,5.53
2019-03-19T17:45:25.850Z,4.80
2019-03-19T17:47:55.129Z,4.93
2019-03-19T17:50:28.100Z,4.97
2019-03-19T17:52:56.609Z,6.10
2019-03-19T17:55:24.826Z,5.53
2019-03-19T17:57:53.159Z,5.40
2019-03-19T18:00:21.502Z,5.80
2019-03-19T18:02:49.866Z,6.50
2019-03-19T18:05:18.249Z,7.30
2019-03-19T18:07:46.580Z,6.00
2019-03-19T18:10:14.962Z,5.00
2019-03-19T18:12:43.303Z,4.10
2019-03-19T18:15:12.561Z,4.63
2019-03-19T18:17:40.924Z,6.23
2019-03-19T18:22:43.646Z,7.30
2019-03-19T18:25:14.906Z,5.77
2019-03-19T18:27:43.296Z,6.87
2019-03-19T18:30:16.865Z,6.27
2019-03-19T18:32:45.247Z,6.20
2019-03-19T18:35:14.626Z,6.93
2019-03-19T18:37:43.001Z,6.00
2019-03-19T18:42:46.556Z,7.80
2019-03-19T18:45:15.800Z,5.87
2019-03-19T18:47:44.183Z,6.53
2019-03-19T18:50:22.269Z,6.87
2019-03-19T18:52:50.664Z,6.77
2019-03-19T18:55:19.035Z,8.10
2019-03-19T18:57:47.415Z,8.07
2019-03-19T19:00:17.338Z,7.50
2019-03-19T19:02:50.298Z,6.77
2019-03-19T19:05:15.608Z,5.37
2019-03-19T19:07:44.001Z,5.23
2019-03-19T19:10:13.881Z,6.22
2019-03-19T19:12:42.231Z,6.40
2019-03-19T19:15:26.985Z,4.60
2019-03-19T19:17:55.369Z,6.30
2019-03-19T19:20:23.703Z,5.63
2019-03-19T19:25:36.290Z,8.13
2019-03-19T19:28:04.677Z,5.10
2019-03-19T19:30:33.021Z,5.70
2019-03-19T19:33:02.518Z,5.27
2019-03-19T19:35:29.708Z,4.90
2019-03-19T19:37:58.088Z,6.30
2019-03-19T19:40:26.486Z,7.20
2019-03-19T19:42:54.832Z,6.40
2019-03-19T19:45:23.178Z,6.00
2019-03-19T19:47:51.578Z,5.90
2019-03-19T19:50:19.977Z,7.80
2019-03-19T19:52:49.269Z,7.53
2019-03-19T19:55:17.705Z,9.85
2019-03-19T19:57:46.192Z,8.27
2019-03-19T20:00:19.062Z,8.10
2019-03-19T20:02:47.449Z,7.93
2019-03-19T20:05:15.773Z,6.37
2019-03-19T20:07:44.118Z,6.80
2019-03-19T20:10:14.785Z,5.70
2019-03-19T20:12:43.170Z,6.40
2019-03-19T20:15:11.553Z,7.60
2019-03-19T20:17:39.892Z,5.70
2019-03-19T20:20:08.258Z,6.30
2019-03-19T20:22:36.658Z,7.07
2019-03-19T20:25:05.014Z,7.30
2019-03-19T20:27:33.413Z,6.50
2019-03-19T20:30:01.776Z,7.78
2019-03-19T20:32:30.122Z,6.40
2019-03-19T20:34:58.484Z,8.90
2019-03-19T20:37:26.842Z,6.47
2019-03-19T20:39:55.212Z,7.40
2019-03-19T20:42:23.553Z,7.18
2019-03-19T20:44:52.019Z,7.77
2019-03-19T20:47:20.345Z,10.83
2019-03-19T20:49:48.700Z,14.00
2019-03-19T20:52:17.082Z,11.23
2019-03-19T20:54:45.521Z,9.20
2019-03-19T20:57:13.964Z,13.32
2019-03-19T20:59:42.396Z,12.45
2019-03-19T21:02:10.798Z,9.33
2019-03-19T21:04:39.207Z,10.10
2019-03-19T21:07:07.658Z,8.30
2019-03-19T21:09:36.149Z,8.60
2019-03-19T21:12:04.534Z,7.57
2019-03-19T21:14:33.027Z,9.80
2019-03-19T21:17:01.375Z,9.80
2019-03-19T21:19:29.760Z,7.03
2019-03-19T21:22:00.449Z,9.35
2019-03-19T21:24:26.622Z,7.70
2019-03-19T21:26:54.954Z,7.30
2019-03-19T21:31:57.557Z,9.10
2019-03-19T21:34:25.939Z,7.87
2019-03-19T21:36:54.330Z,8.18
2019-03-19T21:39:22.702Z,8.13
2019-03-19T21:41:51.094Z,9.15
2019-03-19T21:44:19.469Z,7.00
2019-03-19T21:46:47.863Z,8.52
2019-03-19T21:49:16.246Z,7.53
2019-03-19T21:51:45.609Z,9.05
2019-03-19T21:54:13.990Z,8.48
2019-03-19T21:56:42.376Z,7.10
2019-03-19T21:59:10.725Z,8.27
2019-03-19T22:01:39.308Z,6.97
2019-03-19T22:04:07.665Z,7.82
2019-03-19T22:06:36.070Z,7.03
2019-03-19T22:09:04.483Z,8.50
2019-03-19T22:11:32.849Z,6.47
2019-03-19T22:14:01.226Z,8.20
2019-03-19T22:16:29.604Z,8.65
2019-03-19T22:18:58.087Z,7.13
2019-03-19T22:21:26.442Z,8.90
2019-03-19T22:23:54.843Z,8.10
2019-03-19T22:26:23.177Z,7.93
2019-03-19T22:28:52.420Z,7.33
2019-03-19T22:31:22.683Z,8.30
2019-03-19T22:33:51.071Z,7.20
2019-03-19T22:36:19.478Z,8.00
2019-03-19T22:38:47.943Z,6.80
2019-03-19T22:42:17.357Z,8.17
2019-03-19T22:44:45.729Z,8.50
2019-03-19T22:47:14.110Z,6.97
2019-03-19T22:49:42.581Z,7.90
2019-03-19T22:54:45.231Z,7.72
2019-03-19T22:57:13.569Z,7.53
2019-03-19T22:59:41.921Z,7.07
2019-03-19T23:02:11.217Z,7.78
2019-03-19T23:04:39.586Z,6.60
2019-03-19T23:09:42.168Z,7.25
2019-03-19T23:12:10.507Z,7.30
2019-03-19T23:14:38.877Z,6.30
2019-03-19T23:17:07.263Z,6.43
2019-03-19T23:19:36.530Z,5.60
2019-03-19T23:22:04.927Z,7.60
2019-03-19T23:24:33.257Z,7.33
2019-03-19T23:27:01.626Z,7.20
2019-03-19T23:29:30.092Z,6.80
2019-03-19T23:31:58.583Z,7.97
2019-03-19T23:34:26.931Z,7.70
2019-03-19T23:36:55.306Z,7.60
2019-03-19T23:39:23.709Z,6.17
2019-03-19T23:41:52.102Z,8.27
2019-03-19T23:44:20.466Z,9.18
2019-03-19T23:46:48.814Z,6.70
2019-03-19T23:49:17.164Z,8.95
2019-03-19T23:51:45.554Z,7.43
2019-03-19T23:56:50.124Z,9.52
2019-03-19T23:59:18.471Z,7.03
